Time;durP1;ratioP1;P1;durP2;ratioP2;P2;SDS_P1;SDS_P2;PMS_P1;PMS_P2;Temp;Humidity;BMP_temperature;BMP_pressure;BME280_temperature;BME280_humidity;BME280_pressure;Samples;Min_cycle;Max_cycle;Signal;HPM_P1;HPM_P2
2024/03/04 00:01:49;;;;;;;10.87;6.37;;;;;;;0.99;76.26;102152.63;5056404;28;20448;-78
2024/03/04 00:04:16;;;;;;;9.63;6.30;;;;;;;0.97;76.72;102155.16;5056647;28;20430;-79
2024/03/04 00:06:47;;;;;;;11.97;5.80;;;;;;;0.96;76.37;102155.09;5056385;28;20449;-79
2024/03/04 00:09:15;;;;;;;9.23;6.13;;;;;;;0.94;76.59;102149.91;5056429;28;20438;-79
2024/03/04 00:11:42;;;;;;;9.83;5.80;;;;;;;0.91;76.58;102149.78;5056103;28;20867;-79
2024/03/04 00:14:10;;;;;;;11.73;5.70;;;;;;;0.92;76.47;102158.38;5056178;28;20449;-79
2024/03/04 00:16:37;;;;;;;11.33;6.33;;;;;;;0.88;75.94;102148.75;5056292;28;20452;-79
2024/03/04 00:19:04;;;;;;;8.63;5.77;;;;;;;0.85;76.24;102146.97;5056209;28;20475;-79
2024/03/04 00:21:30;;;;;;;10.60;6.10;;;;;;;0.83;76.38;102156.31;5056205;28;20449;-79
2024/03/04 00:23:58;;;;;;;12.40;5.83;;;;;;;0.82;76.12;102151.97;5056140;28;20855;-79
2024/03/04 00:26:26;;;;;;;10.50;6.37;;;;;;;0.80;76.24;102151.06;5056324;28;20665;-79
2024/03/04 00:28:53;;;;;;;13.60;6.13;;;;;;;0.75;76.37;102143.13;5056100;28;20445;-79
2024/03/04 00:31:19;;;;;;;11.07;5.80;;;;;;;0.70;75.97;102142.06;5056030;28;20447;-79
2024/03/04 00:33:46;;;;;;;10.90;5.93;;;;;;;0.72;76.39;102150.75;5056016;28;20482;-79
2024/03/04 00:36:13;;;;;;;9.33;6.00;;;;;;;0.70;75.88;102154.06;5055995;28;20434;-79
2024/03/04 00:38:40;;;;;;;10.40;6.20;;;;;;;0.68;76.43;102148.88;5055926;28;20838;-79
2024/03/04 00:41:09;;;;;;;9.43;5.97;;;;;;;0.68;76.27;102153.13;5055856;28;20441;-79
2024/03/04 00:43:35;;;;;;;9.67;5.60;;;;;;;0.65;76.34;102153.91;5055640;28;20941;-79
2024/03/04 00:46:03;;;;;;;8.53;5.90;;;;;;;0.66;76.31;102152.22;5055781;28;20906;-79
2024/03/04 00:48:30;;;;;;;10.70;6.07;;;;;;;0.64;75.95;102156.41;5055501;28;20435;-79
2024/03/04 00:50:57;;;;;;;8.93;5.33;;;;;;;0.62;75.85;102150.31;5055706;28;20492;-72
2024/03/04 00:53:24;;;;;;;9.90;5.70;;;;;;;0.58;76.34;102152.75;5055039;28;20593;-68
2024/03/04 00:55:51;;;;;;;10.60;6.10;;;;;;;0.58;76.63;102154.47;5055294;28;20990;-68
2024/03/04 00:58:19;;;;;;;10.03;5.40;;;;;;;0.56;75.78;102153.50;5055276;28;20450;-68
2024/03/04 01:00:46;;;;;;;8.53;5.33;;;;;;;0.54;75.80;102156.03;5055422;28;20434;-68
2024/03/04 01:03:15;;;;;;;10.33;5.20;;;;;;;0.52;76.42;102155.09;5055520;28;20438;-69
2024/03/04 01:05:42;;;;;;;9.17;5.50;;;;;;;0.50;76.33;102153.28;5055605;28;20422;-69
2024/03/04 01:08:09;;;;;;;10.03;5.57;;;;;;;0.46;75.98;102148.81;5054861;28;20442;-69
2024/03/04 01:10:36;;;;;;;12.03;6.37;;;;;;;0.47;76.53;102151.44;5055060;28;20438;-68
2024/03/04 01:13:03;;;;;;;10.63;5.53;;;;;;;0.45;75.82;102150.53;5055160;28;20478;-68
2024/03/04 01:15:33;;;;;;;9.10;5.17;;;;;;;0.44;76.14;102150.44;5054930;28;20541;-68
2024/03/04 01:18:00;;;;;;;9.60;6.47;;;;;;;0.42;75.89;102150.38;5055188;28;20525;-69
2024/03/04 01:20:27;;;;;;;11.60;5.53;;;;;;;0.40;76.35;102146.88;5054832;28;20442;-68
2024/03/04 01:22:54;;;;;;;9.27;5.47;;;;;;;0.38;76.06;102148.50;5054833;28;20442;-69
2024/03/04 01:25:22;;;;;;;9.67;5.53;;;;;;;0.36;76.62;102147.56;5035335;28;20811;-69
2024/03/04 01:27:48;;;;;;;10.87;5.80;;;;;;;0.35;75.69;102146.69;5035031;28;20500;-69
2024/03/04 01:30:15;;;;;;;11.27;5.60;;;;;;;0.34;76.30;102159.50;5035079;28;20451;-68
2024/03/04 01:32:44;;;;;;;10.33;5.60;;;;;;;0.33;76.57;102157.72;5034778;28;20482;-68
2024/03/04 01:35:12;;;;;;;9.10;5.37;;;;;;;0.31;76.33;102157.69;5034787;28;20442;-69
2024/03/04 01:37:40;;;;;;;8.93;5.40;;;;;;;0.30;75.95;102166.19;5034644;28;20545;-69
2024/03/04 01:40:08;;;;;;;9.10;5.53;;;;;;;0.29;76.40;102164.44;5034634;28;20439;-68
2024/03/04 01:42:35;;;;;;;10.80;5.60;;;;;;;0.25;76.49;102162.56;5034559;28;20469;-68
2024/03/04 01:45:02;;;;;;;8.73;5.33;;;;;;;0.26;76.46;102158.31;5034594;28;20442;-69
2024/03/04 01:47:30;;;;;;;8.77;5.27;;;;;;;0.25;76.31;102166.81;5034385;28;20974;-69
2024/03/04 01:49:58;;;;;;;9.67;5.00;;;;;;;0.25;76.42;102166.81;5034757;28;20439;-68
2024/03/04 01:52:25;;;;;;;9.87;5.20;;;;;;;0.23;76.37;102166.78;5034247;28;20478;-69
2024/03/04 01:54:56;;;;;;;11.67;5.93;;;;;;;0.22;76.34;102162.41;5034227;28;20994;-68
2024/03/04 01:57:23;;;;;;;10.30;6.03;;;;;;;0.20;76.34;102164.06;5034289;28;20941;-68
2024/03/04 01:59:52;;;;;;;10.07;5.30;;;;;;;0.20;76.32;102168.34;5034370;28;20435;-69
2024/03/04 02:02:19;;;;;;;9.60;5.33;;;;;;;0.18;76.51;102164.81;5034253;28;20947;-71
2024/03/04 02:04:47;;;;;;;8.07;4.83;;;;;;;0.15;76.35;102165.56;5034458;28;20431;-71
2024/03/04 02:07:17;;;;;;;9.83;5.43;;;;;;;0.15;76.32;102162.13;5034201;28;20774;-71
2024/03/04 02:09:46;;;;;;;10.07;5.47;;;;;;;0.13;76.63;102168.06;5034068;28;20447;-71
2024/03/04 02:12:14;;;;;;;9.87;5.53;;;;;;;0.12;76.71;102166.31;5034257;28;20427;-69
2024/03/04 02:14:41;;;;;;;9.67;5.37;;;;;;;0.11;76.11;102168.81;5034156;28;20465;-69
2024/03/04 02:17:08;;;;;;;9.83;5.70;;;;;;;0.09;76.19;102167.88;5034167;28;20449;-68
2024/03/04 02:19:36;;;;;;;8.07;5.30;;;;;;;0.07;75.98;102172.06;5033724;28;20523;-69
2024/03/04 02:22:06;;;;;;;9.27;5.07;;;;;;;0.06;75.97;102170.34;5033188;28;20924;-69
2024/03/04 02:24:34;;;;;;;9.47;5.57;;;;;;;0.05;75.94;102165.97;5034005;28;20445;-69
2024/03/04 02:27:01;;;;;;;9.53;4.83;;;;;;;0.02;76.40;102174.44;5033775;28;20438;-69
2024/03/04 02:29:28;;;;;;;9.60;5.33;;;;;;;0.01;76.50;102172.69;5033641;28;20434;-68
2024/03/04 02:31:56;;;;;;;8.83;5.10;;;;;;;-0.01;76.52;102174.31;5033636;28;20442;-69
2024/03/04 02:34:23;;;;;;;9.03;5.40;;;;;;;-0.02;75.97;102175.13;5033669;28;20890;-69
2024/03/04 02:36:50;;;;;;;9.33;5.07;;;;;;;-0.04;75.82;102171.59;5033612;28;20439;-69
2024/03/04 02:39:18;;;;;;;10.13;6.87;;;;;;;-0.06;76.16;102178.41;5033565;28;20492;-69
2024/03/04 02:41:49;;;;;;;10.83;5.60;;;;;;;-0.06;76.44;102175.84;5033459;28;20443;-69
2024/03/04 02:44:16;;;;;;;8.73;5.60;;;;;;;-0.07;76.13;102181.78;5033381;28;20924;-68
2024/03/04 02:46:43;;;;;;;8.60;5.40;;;;;;;-0.08;76.13;102181.72;5033604;28;20506;-69
2024/03/04 02:49:10;;;;;;;11.37;6.00;;;;;;;-0.09;76.58;102183.38;5033203;28;20952;-69
2024/03/04 02:51:37;;;;;;;10.27;6.17;;;;;;;-0.09;76.56;102185.97;5035174;28;20443;-69
2024/03/04 02:54:04;;;;;;;11.50;5.87;;;;;;;-0.17;76.71;102171.91;5053196;28;20489;-69
2024/03/04 02:56:31;;;;;;;10.63;5.73;;;;;;;-0.11;76.34;102185.91;5053242;28;20884;-69
2024/03/04 02:59:00;;;;;;;9.53;5.60;;;;;;;-0.11;76.79;102193.63;5053178;28;20926;-69
2024/03/04 03:01:26;;;;;;;9.50;5.57;;;;;;;-0.11;76.27;102195.34;5052989;28;20449;-68
2024/03/04 03:03:53;;;;;;;11.60;5.90;;;;;;;-0.12;76.24;102196.13;5053132;28;20442;-69
2024/03/04 03:06:20;;;;;;;9.70;5.70;;;;;;;-0.12;76.28;102199.59;5052937;28;20939;-69
2024/03/04 03:08:49;;;;;;;11.77;5.30;;;;;;;-0.12;76.69;102207.31;5053193;28;20434;-69
2024/03/04 03:11:17;;;;;;;11.30;5.97;;;;;;;-0.14;76.31;102203.78;5053023;28;20438;-79
2024/03/04 03:13:44;;;;;;;11.07;6.20;;;;;;;-0.14;76.46;102208.06;5052959;28;20485;-79
2024/03/04 03:16:19;;;;;;;10.37;6.23;;;;;;;-0.13;76.54;102207.22;5053204;28;20868;-79
2024/03/04 03:18:46;;;;;;;9.80;5.97;;;;;;;-0.14;77.21;102203.78;5053141;28;20877;-79
2024/03/04 03:21:13;;;;;;;9.87;5.77;;;;;;;-0.15;77.27;102209.75;5052986;28;20532;-69
2024/03/04 03:23:43;;;;;;;7.63;5.37;;;;;;;-0.13;76.54;102214.94;5052806;28;20430;-69
2024/03/04 03:26:10;;;;;;;13.67;7.13;;;;;;;-0.14;76.84;102214.06;5052789;28;20438;-69
2024/03/04 03:28:38;;;;;;;10.43;6.17;;;;;;;-0.14;77.42;102214.06;5052741;28;20453;-69
2024/03/04 03:31:05;;;;;;;10.70;6.37;;;;;;;-0.14;77.32;102215.78;5052657;28;20448;-69
2024/03/04 03:33:33;;;;;;;9.47;6.07;;;;;;;-0.13;77.37;102209.81;5052572;28;20846;-69
2024/03/04 03:36:00;;;;;;;11.97;5.93;;;;;;;-0.12;77.19;102214.13;5052477;28;20438;-69
2024/03/04 03:38:27;;;;;;;10.73;5.37;;;;;;;-0.12;77.38;102211.56;5052506;28;20430;-69
2024/03/04 03:40:56;;;;;;;10.90;5.70;;;;;;;-0.12;77.09;102212.47;5052458;28;20450;-69
2024/03/04 03:43:23;;;;;;;9.80;5.77;;;;;;;-0.11;76.85;102205.63;5052585;28;20438;-69
2024/03/04 03:45:50;;;;;;;10.90;6.03;;;;;;;-0.10;77.48;102215.09;5039920;28;20449;-68
2024/03/04 03:48:17;;;;;;;9.50;5.93;;;;;;;-0.09;77.59;102219.41;5032609;28;20434;-69
2024/03/04 03:50:46;;;;;;;10.60;5.70;;;;;;;-0.10;77.42;102212.50;5032520;28;20471;-69
2024/03/04 03:53:13;;;;;;;10.13;5.77;;;;;;;-0.10;77.17;102221.09;5032359;28;20490;-69
2024/03/04 03:55:40;;;;;;;11.60;6.33;;;;;;;-0.08;77.12;102222.88;5032608;28;20467;-68
2024/03/04 03:58:07;;;;;;;9.00;6.30;;;;;;;-0.08;77.38;102223.75;5032412;28;20450;-68
2024/03/04 04:00:34;;;;;;;12.63;6.87;;;;;;;-0.08;76.90;102234.06;5032415;28;20433;-68
2024/03/04 04:03:01;;;;;;;11.80;6.57;;;;;;;-0.07;77.46;102230.66;5032332;28;20454;-68
2024/03/04 04:05:28;;;;;;;11.83;5.93;;;;;;;-0.07;77.13;102225.50;5032395;28;20435;-69
2024/03/04 04:07:57;;;;;;;12.83;6.63;;;;;;;-0.06;77.38;102231.53;5032417;28;20443;-68
2024/03/04 04:10:24;;;;;;;12.97;6.30;;;;;;;-0.07;76.99;102240.94;5032613;28;20439;-69
2024/03/04 04:12:52;;;;;;;10.50;5.73;;;;;;;-0.06;77.71;102235.00;5032508;28;20790;-68
2024/03/04 04:15:19;;;;;;;10.30;6.50;;;;;;;-0.08;77.43;102234.06;5032423;28;20431;-69
2024/03/04 04:17:46;;;;;;;9.77;5.90;;;;;;;-0.07;77.42;102235.78;5032497;28;20856;-69
2024/03/04 04:20:14;;;;;;;12.77;6.50;;;;;;;-0.06;76.90;102241.81;5032290;28;20517;-68
2024/03/04 04:22:40;;;;;;;12.53;6.17;;;;;;;-0.06;76.93;102236.66;5032348;28;20944;-68
2024/03/04 04:25:10;;;;;;;11.57;5.17;;;;;;;-0.14;76.87;102232.09;5032167;28;20441;-68
2024/03/04 04:27:37;;;;;;;11.70;5.83;;;;;;;-0.06;77.06;102242.72;5032224;28;20777;-68
2024/03/04 04:30:06;;;;;;;11.03;5.63;;;;;;;-0.07;77.56;102246.09;5032257;28;20813;-68
2024/03/04 04:32:34;;;;;;;11.13;5.73;;;;;;;-0.07;77.06;102245.22;5032236;28;20954;-69
2024/03/04 04:35:01;;;;;;;11.27;5.97;;;;;;;-0.07;77.59;102255.50;5032357;28;20501;-68
2024/03/04 04:37:29;;;;;;;10.27;5.47;;;;;;;-0.08;76.82;102254.63;5032400;28;20481;-68
2024/03/04 04:39:55;;;;;;;8.77;6.03;;;;;;;-0.08;77.33;102254.63;5032087;28;20435;-68
2024/03/04 04:42:24;;;;;;;9.17;5.23;;;;;;;-0.08;76.92;102262.34;5031997;28;20431;-69
2024/03/04 04:44:51;;;;;;;9.67;5.57;;;;;;;-0.09;77.25;102263.16;5034593;28;20453;-68
2024/03/04 04:47:18;;;;;;;10.70;6.30;;;;;;;-0.10;77.72;102261.41;5035983;28;20438;-68
2024/03/04 04:49:45;;;;;;;9.53;5.57;;;;;;;-0.09;77.54;102273.44;5035579;28;20440;-69
2024/03/04 04:52:12;;;;;;;10.30;5.40;;;;;;;-0.11;77.26;102273.38;5045843;28;20438;-68
2024/03/04 04:54:38;;;;;;;13.20;5.63;;;;;;;-0.11;77.05;102275.09;5055355;28;20484;-69
2024/03/04 04:57:05;;;;;;;8.43;5.43;;;;;;;-0.13;76.98;102277.56;5055712;28;20521;-68
2024/03/04 04:59:34;;;;;;;10.47;6.20;;;;;;;-0.13;77.12;102281.84;5055450;28;20444;-69
2024/03/04 05:02:02;;;;;;;12.30;5.93;;;;;;;-0.14;77.44;102283.53;5055471;28;20525;-68
2024/03/04 05:04:29;;;;;;;11.90;6.03;;;;;;;-0.14;77.11;102286.09;5055500;28;20434;-69
2024/03/04 05:06:55;;;;;;;8.97;5.77;;;;;;;-0.14;77.08;102282.66;5055197;28;20446;-68
2024/03/04 05:09:22;;;;;;;14.57;6.63;;;;;;;-0.15;77.01;102283.44;5055318;28;20434;-69
2024/03/04 05:11:49;;;;;;;8.20;5.43;;;;;;;-0.16;76.78;102284.28;5055320;28;20852;-69
2024/03/04 05:14:18;;;;;;;11.70;6.10;;;;;;;-0.17;76.75;102290.25;5055233;28;20478;-67
2024/03/04 05:16:47;;;;;;;13.27;6.23;;;;;;;-0.17;77.20;102295.38;5055110;28;20450;-69
2024/03/04 05:19:15;;;;;;;9.77;5.93;;;;;;;-0.18;76.67;102291.03;5054920;28;20442;-68
2024/03/04 05:21:43;;;;;;;11.93;6.47;;;;;;;-0.20;76.85;102290.97;5054946;28;20536;-68
2024/03/04 05:24:09;;;;;;;11.23;5.97;;;;;;;-0.20;76.80;102293.56;5054891;28;20454;-69
2024/03/04 05:26:36;;;;;;;11.53;5.77;;;;;;;-0.20;77.35;102305.53;5055036;28;20453;-68
2024/03/04 05:29:04;;;;;;;10.43;5.93;;;;;;;-0.21;77.51;102303.75;5054782;28;20442;-68
2024/03/04 05:31:31;;;;;;;10.80;5.90;;;;;;;-0.24;76.98;102301.03;5054760;28;20646;-68
2024/03/04 05:33:59;;;;;;;11.03;5.47;;;;;;;-0.23;77.63;102308.84;5001473;28;20481;-68
2024/03/04 05:36:26;;;;;;;11.67;5.50;;;;;;;-0.23;77.13;102313.09;4988931;28;94442;-68
2024/03/04 05:38:53;;;;;;;9.63;5.97;;;;;;;-0.23;77.21;102313.09;5028940;28;20793;-69
2024/03/04 05:41:20;;;;;;;10.03;5.80;;;;;;;-0.25;77.15;102312.16;4981106;28;20567;-68
2024/03/04 05:43:47;;;;;;;13.13;6.73;;;;;;;-0.24;76.98;102319.94;5034735;28;20526;-69
2024/03/04 05:46:13;;;;;;;12.00;5.47;;;;;;;-0.23;77.31;102315.66;5034645;28;20862;-68
2024/03/04 05:48:40;;;;;;;13.30;6.33;;;;;;;-0.25;77.72;102325.88;5034461;28;20435;-68
2024/03/04 05:51:09;;;;;;;11.83;6.50;;;;;;;-0.24;77.25;102329.34;5034391;28;20437;-69
2024/03/04 05:53:36;;;;;;;10.07;6.10;;;;;;;-0.26;77.01;102331.84;5034472;28;20485;-68
2024/03/04 05:56:04;;;;;;;9.53;6.10;;;;;;;-0.24;77.48;102339.63;5033530;28;20466;-68
2024/03/04 05:58:31;;;;;;;12.17;7.07;;;;;;;-0.25;77.72;102336.19;5034452;28;20803;-69
2024/03/04 06:00:58;;;;;;;11.33;6.30;;;;;;;-0.24;77.11;102343.06;5034179;28;20799;-68
2024/03/04 06:03:25;;;;;;;10.53;5.90;;;;;;;-0.24;77.22;102344.78;5034295;28;20454;-68
2024/03/04 06:05:52;;;;;;;15.30;6.77;;;;;;;-0.22;77.54;102348.31;5034209;28;20438;-68
2024/03/04 06:08:20;;;;;;;10.47;6.87;;;;;;;-0.22;77.93;102353.44;5034091;28;20435;-68
2024/03/04 06:10:47;;;;;;;13.30;7.93;;;;;;;-0.23;77.63;102356.81;5034322;28;20443;-68
2024/03/04 06:13:14;;;;;;;10.97;6.50;;;;;;;-0.21;77.27;102360.34;5034067;28;20799;-68
2024/03/04 06:15:41;;;;;;;11.20;7.00;;;;;;;-0.19;77.92;102366.44;5033969;28;20932;-68
2024/03/04 06:18:08;;;;;;;15.03;7.70;;;;;;;-0.19;77.61;102363.88;5034135;28;20477;-68
2024/03/04 06:20:34;;;;;;;16.10;7.73;;;;;;;-0.17;77.90;102367.41;5033794;28;20435;-68
2024/03/04 06:23:01;;;;;;;11.70;6.80;;;;;;;-0.17;77.88;102370.00;5033993;28;20439;-68
2024/03/04 06:25:30;;;;;;;12.30;7.07;;;;;;;-0.15;78.21;102369.25;5033803;28;20443;-68
2024/03/04 06:27:56;;;;;;;12.57;7.33;;;;;;;-0.15;78.25;102373.50;5033745;28;20953;-68
2024/03/04 06:30:23;;;;;;;13.50;7.43;;;;;;;-0.13;77.91;102374.44;5033962;28;20431;-69
2024/03/04 06:32:50;;;;;;;14.47;8.17;;;;;;;-0.11;78.02;102376.28;5033596;28;20518;-68
2024/03/04 06:35:17;;;;;;;15.90;8.77;;;;;;;-0.10;77.86;102379.75;5033510;28;20474;-68
2024/03/04 06:37:44;;;;;;;16.07;9.17;;;;;;;-0.08;78.16;102384.97;5033574;28;20431;-68
2024/03/04 06:40:12;;;;;;;14.93;8.20;;;;;;;-0.07;78.68;102385.03;5033565;28;20443;-67
2024/03/04 06:42:40;;;;;;;14.10;7.80;;;;;;;-0.05;78.39;102398.84;5033625;28;20912;-68
2024/03/04 06:45:08;;;;;;;15.70;7.47;;;;;;;-0.04;77.93;102395.47;5033442;28;20449;-68
2024/03/04 06:47:35;;;;;;;14.60;8.10;;;;;;;-0.00;78.41;102401.66;5033432;28;20806;-68
2024/03/04 06:50:04;;;;;;;15.87;8.13;;;;;;;0.02;78.32;102400.00;5033422;28;20446;-68
2024/03/04 06:52:31;;;;;;;19.87;9.90;;;;;;;0.03;79.04;102402.66;5017313;28;20864;-68
2024/03/04 06:54:58;;;;;;;17.63;8.27;;;;;;;0.04;78.70;102404.41;5017076;28;20482;-68
2024/03/04 06:57:25;;;;;;;15.43;7.97;;;;;;;0.06;79.12;102407.94;5033147;28;20443;-68
2024/03/04 06:59:53;;;;;;;14.93;8.13;;;;;;;0.00;78.71;102397.38;5033011;28;20447;-68
2024/03/04 07:02:20;;;;;;;15.10;8.07;;;;;;;0.03;79.29;102400.09;5033146;28;20449;-66
2024/03/04 07:04:47;;;;;;;12.73;7.47;;;;;;;0.11;78.49;102416.78;5033062;28;20449;-68
2024/03/04 07:07:14;;;;;;;13.40;7.17;;;;;;;0.15;78.92;102414.34;5032832;28;20446;-67
2024/03/04 07:09:41;;;;;;;13.00;8.30;;;;;;;0.18;78.72;102422.22;5032982;28;20439;-69
2024/03/04 07:12:08;;;;;;;15.43;8.17;;;;;;;0.20;78.74;102423.16;5033000;28;20449;-68
2024/03/04 07:14:35;;;;;;;13.47;7.60;;;;;;;0.22;78.95;102421.53;5032806;28;20557;-68
2024/03/04 07:17:04;;;;;;;14.03;7.53;;;;;;;0.25;79.07;102420.00;5032883;28;20808;-68
2024/03/04 07:19:30;;;;;;;13.03;7.53;;;;;;;0.28;79.02;102424.38;5032925;28;20439;-68
2024/03/04 07:21:57;;;;;;;16.77;7.80;;;;;;;0.30;79.08;102422.75;5032826;28;20435;-69
2024/03/04 07:24:24;;;;;;;14.27;8.13;;;;;;;0.34;78.84;102425.56;5032702;28;20453;-68
2024/03/04 07:26:51;;;;;;;13.63;7.67;;;;;;;0.37;78.61;102424.81;5032819;28;20433;-69
2024/03/04 07:29:18;;;;;;;14.50;7.77;;;;;;;0.40;79.08;102430.09;5032754;28;20446;-69
2024/03/04 07:31:46;;;;;;;15.17;7.90;;;;;;;0.43;79.10;102430.25;5032691;28;20441;-69
2024/03/04 07:34:14;;;;;;;17.47;10.07;;;;;;;0.41;79.48;102434.44;5032531;28;20470;-69
2024/03/04 07:36:41;;;;;;;13.13;7.30;;;;;;;0.49;79.18;102430.50;5032750;28;20446;-69
2024/03/04 07:39:08;;;;;;;12.13;7.33;;;;;;;0.52;79.25;102440.94;5032834;28;20445;-69
2024/03/04 07:41:35;;;;;;;14.90;7.80;;;;;;;0.55;79.22;102441.09;5032582;28;21456;-69
2024/03/04 07:44:03;;;;;;;14.63;7.77;;;;;;;0.57;79.16;102431.75;5032885;28;20561;-69
2024/03/04 07:46:30;;;;;;;14.13;7.43;;;;;;;0.58;78.74;102430.91;5032530;28;20929;-69
2024/03/04 07:48:58;;;;;;;12.60;6.13;;;;;;;0.65;79.09;102441.50;5032533;28;20447;-69
2024/03/04 07:51:26;;;;;;;12.70;7.00;;;;;;;0.68;78.61;102441.63;5032468;28;20521;-75
2024/03/04 07:53:53;;;;;;;15.67;7.40;;;;;;;0.68;79.14;102434.81;5032519;28;20447;-76
2024/03/04 07:56:20;;;;;;;15.53;8.70;;;;;;;0.74;79.45;102444.50;5032336;28;20462;-74
2024/03/04 07:58:46;;;;;;;12.47;6.97;;;;;;;0.75;79.13;102441.09;5032329;28;20449;-74
2024/03/04 08:01:13;;;;;;;13.43;7.30;;;;;;;0.83;79.00;102454.34;5032584;28;20441;-77
2024/03/04 08:03:40;;;;;;;13.57;6.97;;;;;;;0.85;78.84;102456.16;5032418;28;20474;-74
2024/03/04 08:06:08;;;;;;;14.13;8.17;;;;;;;0.89;79.04;102457.19;5032593;28;20443;-77
2024/03/04 08:08:36;;;;;;;13.33;8.10;;;;;;;0.92;79.10;102457.31;5032358;28;20807;-75
2024/03/04 08:11:04;;;;;;;15.17;7.57;;;;;;;0.93;79.31;102465.09;5032298;28;20439;-75
2024/03/04 08:13:31;;;;;;;10.13;6.90;;;;;;;0.96;79.25;102456.63;5032229;28;20987;-74
2024/03/04 08:15:58;;;;;;;13.03;6.60;;;;;;;0.99;79.03;102467.97;5032244;28;20486;-76
2024/03/04 08:18:25;;;;;;;12.87;7.33;;;;;;;1.03;79.25;102466.38;5032767;28;20445;-76
2024/03/04 08:20:52;;;;;;;13.37;7.63;;;;;;;1.06;79.14;102466.53;5036162;28;20442;-75
2024/03/04 08:23:19;;;;;;;11.83;7.03;;;;;;;1.08;78.99;102462.31;5036151;28;20449;-76
2024/03/04 08:25:47;;;;;;;13.13;7.07;;;;;;;1.11;79.12;102464.16;5036177;28;20443;-75
2024/03/04 08:28:14;;;;;;;13.87;7.70;;;;;;;1.16;79.28;102467.78;5036188;28;20435;-76
2024/03/04 08:30:41;;;;;;;12.63;7.53;;;;;;;1.18;79.15;102468.75;5035957;28;20800;-75
2024/03/04 08:33:08;;;;;;;14.73;7.93;;;;;;;1.22;79.04;102468.03;5036006;28;20954;-76
2024/03/04 08:35:35;;;;;;;13.10;8.57;;;;;;;1.25;79.31;102463.94;5035809;28;20478;-76
2024/03/04 08:38:02;;;;;;;13.43;7.23;;;;;;;1.29;78.80;102475.25;5035807;28;20436;-73
2024/03/04 08:40:31;;;;;;;13.30;8.00;;;;;;;1.32;78.99;102470.22;5035936;28;20990;-74
2024/03/04 08:42:59;;;;;;;12.63;7.87;;;;;;;1.34;78.81;102468.59;5035620;28;20534;-74
2024/03/04 08:45:26;;;;;;;14.17;7.90;;;;;;;1.37;78.97;102479.03;5036137;28;20438;-77
2024/03/04 08:47:53;;;;;;;12.10;6.90;;;;;;;1.39;78.64;102472.25;5035826;28;20778;-76
2024/03/04 08:50:20;;;;;;;17.23;9.40;;;;;;;1.41;79.13;102473.19;5033620;28;20908;-78
2024/03/04 08:52:47;;;;;;;13.90;7.37;;;;;;;1.42;79.03;102469.81;5020450;28;20851;-77
2024/03/04 08:55:15;;;;;;;12.23;6.67;;;;;;;1.46;78.92;102473.38;5035616;28;20490;-71
2024/03/04 08:57:42;;;;;;;14.03;7.83;;;;;;;1.49;78.99;102478.66;5035648;28;20439;-70
2024/03/04 09:00:12;;;;;;;11.57;7.43;;;;;;;1.51;78.85;102471.00;5035374;28;20936;-70
2024/03/04 09:02:39;;;;;;;12.07;7.20;;;;;;;1.53;78.93;102477.09;5035704;28;20443;-72
2024/03/04 09:05:08;;;;;;;12.40;6.70;;;;;;;1.51;78.63;102471.00;5035288;28;20955;-71
2024/03/04 09:07:35;;;;;;;13.13;7.73;;;;;;;1.58;78.56;102475.59;5035364;28;20483;-70
2024/03/04 09:10:04;;;;;;;12.57;7.37;;;;;;;1.60;78.74;102481.69;5035191;28;20448;-70
2024/03/04 09:12:31;;;;;;;11.33;6.80;;;;;;;1.63;78.64;102485.28;5035409;28;20449;-70
2024/03/04 09:14:58;;;;;;;11.57;6.90;;;;;;;1.65;78.55;102482.78;5035178;28;20483;-70
2024/03/04 09:17:26;;;;;;;13.03;7.57;;;;;;;1.69;78.67;102484.66;5035169;28;20432;-72
2024/03/04 09:19:53;;;;;;;12.80;7.40;;;;;;;1.67;78.83;102481.13;5035199;28;20444;-71
2024/03/04 09:22:19;;;;;;;12.20;7.20;;;;;;;1.70;78.91;102483.81;5034957;28;20439;-71
2024/03/04 09:24:48;;;;;;;11.07;6.57;;;;;;;1.74;78.99;102485.72;5035331;28;20450;-71
2024/03/04 09:27:15;;;;;;;12.80;7.53;;;;;;;1.77;78.64;102491.00;5035239;28;20477;-71
2024/03/04 09:29:42;;;;;;;12.83;8.53;;;;;;;1.80;79.08;102495.41;5034716;28;20444;-70
2024/03/04 09:32:09;;;;;;;12.03;7.10;;;;;;;1.82;78.80;102502.41;5034980;28;20431;-71
2024/03/04 09:34:38;;;;;;;12.63;7.40;;;;;;;1.84;79.21;102495.59;5034677;28;20484;-71
2024/03/04 09:37:05;;;;;;;11.53;6.73;;;;;;;1.85;78.67;102499.06;5034650;28;20534;-70
2024/03/04 09:39:32;;;;;;;13.07;7.63;;;;;;;1.87;78.67;102502.59;5034628;28;20436;-71
2024/03/04 09:41:59;;;;;;;10.13;6.37;;;;;;;1.89;78.71;102499.25;5035292;28;20616;-73
2024/03/04 09:44:27;;;;;;;12.07;7.50;;;;;;;1.91;78.76;102502.78;5034702;28;20439;-71
2024/03/04 09:46:55;;;;;;;11.27;6.67;;;;;;;1.95;79.04;102503.78;5034645;28;20467;-71
2024/03/04 09:49:23;;;;;;;13.03;7.33;;;;;;;1.99;78.70;102502.19;5034631;28;20441;-70
2024/03/04 09:51:52;;;;;;;10.20;6.60;;;;;;;2.01;78.81;102500.56;5034205;28;20447;-70
2024/03/04 09:54:21;;;;;;;10.27;7.07;;;;;;;2.06;78.70;102509.38;5034507;28;20431;-71
2024/03/04 09:56:48;;;;;;;14.43;7.03;;;;;;;2.11;78.82;102507.88;5034405;28;20463;-70
2024/03/04 09:59:15;;;;;;;11.60;6.97;;;;;;;2.17;78.71;102508.09;5034445;28;20439;-72
2024/03/04 10:01:42;;;;;;;11.43;7.97;;;;;;;2.22;78.80;102511.75;5034272;28;20813;-71
2024/03/04 10:04:09;;;;;;;13.27;7.50;;;;;;;2.26;78.82;102513.63;5034378;28;20433;-72
2024/03/04 10:06:36;;;;;;;12.10;8.20;;;;;;;2.32;78.83;102513.00;5034401;28;20455;-69
2024/03/04 10:09:04;;;;;;;11.47;7.10;;;;;;;2.38;78.77;102516.69;5034182;28;20440;-69
2024/03/04 10:11:31;;;;;;;9.97;6.83;;;;;;;2.41;78.47;102523.66;5034263;28;20454;-70
2024/03/04 10:13:58;;;;;;;15.50;8.50;;;;;;;2.45;78.49;102529.88;5033966;28;20442;-70
2024/03/04 10:16:25;;;;;;;12.83;7.50;;;;;;;2.48;78.50;102529.97;5033872;28;20484;-69
2024/03/04 10:19:03;;;;;;;13.50;7.80;;;;;;;2.51;78.49;102530.09;5034101;28;20442;-70
2024/03/04 10:21:31;;;;;;;12.17;7.33;;;;;;;2.53;78.44;102525.84;5034080;28;20445;-75
2024/03/04 10:23:58;;;;;;;12.43;7.40;;;;;;;2.57;78.39;102526.03;5033776;28;20959;-74
2024/03/04 10:26:28;;;;;;;12.40;7.67;;;;;;;2.60;78.14;102533.03;5033888;28;20560;-74
2024/03/04 10:28:55;;;;;;;11.33;6.83;;;;;;;2.62;78.20;102533.97;5033429;28;21093;-75
2024/03/04 10:31:22;;;;;;;12.97;8.33;;;;;;;2.66;78.08;102528.09;5033812;28;21007;-74
2024/03/04 10:33:49;;;;;;;13.20;7.30;;;;;;;2.70;78.00;102536.81;5032597;28;20956;-73
2024/03/04 10:36:17;;;;;;;13.43;7.67;;;;;;;2.72;78.00;102541.22;5033456;28;21083;-74
2024/03/04 10:38:46;;;;;;;12.60;7.37;;;;;;;2.74;78.06;102531.84;5033737;28;20449;-72
2024/03/04 10:41:17;;;;;;;10.50;7.07;;;;;;;2.79;77.87;102538.06;5032849;28;20475;-73
2024/03/04 10:43:46;;;;;;;12.57;7.70;;;;;;;2.81;77.99;102543.28;5032487;28;20452;-72
2024/03/04 10:46:15;;;;;;;12.87;7.43;;;;;;;2.86;77.91;102543.47;5033322;28;20441;-73
2024/03/04 10:48:42;;;;;;;9.77;6.50;;;;;;;2.86;77.77;102543.47;5033884;28;20825;-76
2024/03/04 10:51:09;;;;;;;11.57;5.57;;;;;;;2.88;77.89;102544.41;5032916;28;20965;-76
2024/03/04 10:53:36;;;;;;;10.07;7.30;;;;;;;2.91;77.82;102541.94;5033368;28;20449;-74
2024/03/04 10:56:06;;;;;;;11.83;6.57;;;;;;;2.94;77.70;102542.06;5033494;28;20490;-74
2024/03/04 10:58:33;;;;;;;13.00;7.70;;;;;;;2.95;77.81;102543.81;5033231;28;20455;-74
2024/03/04 11:01:06;;;;;;;11.17;5.90;;;;;;;2.98;77.67;102541.31;5033216;28;20445;-75
2024/03/04 11:03:37;;;;;;;13.80;6.90;;;;;;;3.00;77.52;102537.09;5033325;28;20959;-77
2024/03/04 11:06:10;;;;;;;11.10;6.97;;;;;;;3.03;77.57;102540.69;5033053;28;20810;-77
2024/03/04 11:08:40;;;;;;;11.53;6.90;;;;;;;3.04;77.58;102533.78;5033169;28;20441;-77
2024/03/04 11:11:12;;;;;;;11.37;6.70;;;;;;;3.05;77.27;102535.56;5033213;28;20442;-77
2024/03/04 11:13:47;;;;;;;12.70;6.77;;;;;;;3.09;77.26;102533.97;5032924;28;20530;-77
2024/03/04 11:16:23;;;;;;;10.63;7.10;;;;;;;3.11;77.51;102535.78;5032929;28;20728;-76
2024/03/04 11:18:59;;;;;;;9.27;5.57;;;;;;;3.13;77.20;102536.75;5032998;28;20436;-76
2024/03/04 11:21:28;;;;;;;11.73;6.00;;;;;;;3.14;77.32;102532.44;5033258;28;20958;-73
2024/03/04 11:23:55;;;;;;;10.77;7.10;;;;;;;3.15;77.10;102532.47;5032874;28;20438;-73
2024/03/04 11:26:23;;;;;;;11.07;5.90;;;;;;;3.16;77.18;102530.78;5033030;28;20444;-73